createdAt,value
2022-11-05T00:02:32.344Z,97130.40
2022-11-05T00:05:34.509Z,97135.60
2022-11-05T00:08:23.837Z,97136.80
2022-11-05T00:10:50.995Z,97142.60
2022-11-05T00:13:36.554Z,97146.00
2022-11-05T00:16:22.546Z,97146.20
2022-11-05T00:19:06.814Z,97149.60
2022-11-05T00:21:54.520Z,97143.20
2022-11-05T00:24:41.347Z,97148.00
2022-11-05T00:27:09.634Z,97149.20
2022-11-05T00:29:36.537Z,97153.80
2022-11-05T00:32:03.678Z,97155.60
2022-11-05T00:34:30.559Z,97154.40
2022-11-05T00:36:57.308Z,97153.00
2022-11-05T00:39:24.237Z,97156.20
2022-11-05T00:42:09.674Z,97160.80
2022-11-05T00:44:55.231Z,97165.00
2022-11-05T00:47:40.983Z,97175.40
2022-11-05T00:50:10.818Z,97177.80
2022-11-05T00:53:07.623Z,97187.20
2022-11-05T00:55:39.424Z,97191.80
2022-11-05T00:58:10.598Z,97192.40
2022-11-05T01:00:41.688Z,97188.40
2022-11-05T01:03:14.345Z,97190.00
2022-11-05T01:05:48.431Z,97200.80
2022-11-05T01:08:17.886Z,97200.00
2022-11-05T01:10:48.852Z,97194.00
2022-11-05T01:13:27.048Z,97191.80
2022-11-05T01:15:56.145Z,97188.80
2022-11-05T01:18:24.802Z,97189.80
2022-11-05T01:20:51.684Z,97191.40
2022-11-05T01:23:18.985Z,97184.00
2022-11-05T01:25:46.034Z,97183.80
2022-11-05T01:28:12.991Z,97179.60
2022-11-05T01:30:40.140Z,97193.80
2022-11-05T01:33:08.022Z,97196.80
2022-11-05T01:35:34.834Z,97202.60
2022-11-05T01:38:01.710Z,97206.20
2022-11-05T01:40:28.581Z,97213.00
2022-11-05T01:42:55.391Z,97207.00
2022-11-05T01:45:22.272Z,97208.00
2022-11-05T01:47:54.378Z,97206.80
2022-11-05T01:50:40.535Z,97208.20
2022-11-05T01:53:25.599Z,97208.80
2022-11-05T01:56:16.659Z,97208.60
2022-11-05T01:58:55.790Z,97213.20
2022-11-05T02:01:23.425Z,97217.80
2022-11-05T02:03:57.973Z,97220.20
2022-11-05T02:06:28.983Z,97221.20
2022-11-05T02:09:10.423Z,97212.20
2022-11-05T02:11:37.191Z,97214.20
2022-11-05T02:14:04.901Z,97212.40
2022-11-05T02:16:44.258Z,97212.40
2022-11-05T02:19:38.790Z,97208.80
2022-11-05T02:22:27.771Z,97214.60
2022-11-05T02:25:31.804Z,97221.20
2022-11-05T02:28:49.702Z,97231.80
2022-11-05T02:31:40.651Z,97246.00
2022-11-05T02:34:55.011Z,97249.20
2022-11-05T02:37:41.716Z,97245.80
2022-11-05T02:40:26.277Z,97230.00
2022-11-05T02:43:59.982Z,97223.80
2022-11-05T02:47:06.869Z,97223.00
2022-11-05T02:50:08.008Z,97221.80
2022-11-05T02:52:51.745Z,97216.20
2022-11-05T02:55:49.310Z,97212.60
2022-11-05T02:58:15.970Z,97213.60
2022-11-05T03:00:45.819Z,97210.00
2022-11-05T03:03:43.037Z,97207.60
2022-11-05T03:06:34.036Z,97220.80
2022-11-05T03:09:43.769Z,97234.40
2022-11-05T03:12:57.143Z,97243.40
2022-11-05T03:15:50.871Z,97237.20
2022-11-05T03:18:48.761Z,97234.20
2022-11-05T03:21:23.282Z,97248.20
2022-11-05T03:23:57.061Z,97247.80
2022-11-05T03:26:38.036Z,97243.60
2022-11-05T03:29:28.643Z,97253.60
2022-11-05T03:32:01.971Z,97255.20
2022-11-05T03:34:45.575Z,97251.00
2022-11-05T03:37:13.844Z,97242.00
2022-11-05T03:39:51.484Z,97241.00
2022-11-05T03:42:26.950Z,97245.00
2022-11-05T03:45:00.315Z,97251.60
2022-11-05T03:47:38.288Z,97252.80
2022-11-05T03:50:12.902Z,97262.00
2022-11-05T03:52:59.250Z,97270.40
2022-11-05T03:56:00.327Z,97275.60
2022-11-05T03:58:29.161Z,97276.60
2022-11-05T04:00:56.272Z,97273.60
2022-11-05T04:03:23.137Z,97273.80
2022-11-05T04:06:13.095Z,97281.00
2022-11-05T04:08:59.668Z,97288.00
2022-11-05T04:11:45.309Z,97280.80
2022-11-05T04:14:12.151Z,97280.20
2022-11-05T04:16:57.834Z,97291.60
2022-11-05T04:19:43.243Z,97302.40
2022-11-05T04:22:28.955Z,97298.20
2022-11-05T04:24:55.750Z,97296.00
2022-11-05T04:27:22.679Z,97291.20
2022-11-05T04:30:08.307Z,97285.40
2022-11-05T04:32:35.093Z,97281.20
2022-11-05T04:35:01.867Z,97282.40
2022-11-05T04:37:28.788Z,97283.80
2022-11-05T04:39:55.733Z,97286.80
2022-11-05T04:42:22.678Z,97286.60
2022-11-05T04:44:49.523Z,97283.80
2022-11-05T04:47:16.327Z,97287.00
2022-11-05T04:49:43.205Z,97290.20
2022-11-05T04:52:10.045Z,97297.80
2022-11-05T04:54:36.888Z,97298.20
2022-11-05T04:57:03.851Z,97301.40
2022-11-05T04:59:30.679Z,97295.40
2022-11-05T05:01:57.513Z,97291.00
2022-11-05T05:04:24.671Z,97297.20
2022-11-05T05:06:51.471Z,97312.00
2022-11-05T05:09:18.455Z,97320.00
2022-11-05T05:11:45.330Z,97330.80
2022-11-05T05:14:12.652Z,97338.60
2022-11-05T05:16:39.597Z,97342.20
2022-11-05T05:19:06.426Z,97335.60
2022-11-05T05:21:39.403Z,97340.60
2022-11-05T05:24:17.069Z,97346.00
2022-11-05T05:26:50.079Z,97354.40
2022-11-05T05:29:18.408Z,97357.40
2022-11-05T05:31:45.749Z,97364.60
2022-11-05T05:34:14.369Z,97362.60
2022-11-05T05:36:41.470Z,97370.20
2022-11-05T05:39:11.114Z,97372.00
2022-11-05T05:41:38.381Z,97371.60
2022-11-05T05:44:06.552Z,97366.60
2022-11-05T05:46:33.598Z,97360.40
2022-11-05T05:49:00.481Z,97360.20
2022-11-05T05:51:27.393Z,97364.00
2022-11-05T05:53:55.021Z,97373.00
2022-11-05T05:56:22.253Z,97375.60
2022-11-05T05:58:49.102Z,97381.20
2022-11-05T06:01:19.545Z,97388.60
2022-11-05T06:03:49.024Z,97390.20
2022-11-05T06:06:21.311Z,97396.40
2022-11-05T06:08:49.199Z,97398.80
2022-11-05T06:11:16.585Z,97401.00
2022-11-05T06:13:43.559Z,97399.00
2022-11-05T06:16:11.285Z,97398.40
2022-11-05T06:18:38.463Z,97394.40
2022-11-05T06:21:12.073Z,97396.20
2022-11-05T06:23:41.945Z,97400.40
2022-11-05T06:26:18.522Z,97399.00
2022-11-05T06:28:46.485Z,97398.20
2022-11-05T06:31:15.043Z,97402.20
2022-11-05T06:33:41.954Z,97401.00
2022-11-05T06:36:15.002Z,97398.00
2022-11-05T06:38:42.214Z,97394.80
2022-11-05T06:41:10.673Z,97396.00
2022-11-05T06:43:38.905Z,97397.60
2022-11-05T06:46:06.524Z,97405.00
2022-11-05T06:48:33.905Z,97410.80
2022-11-05T06:51:00.974Z,97414.60
2022-11-05T06:53:28.464Z,97420.00
2022-11-05T06:55:55.450Z,97430.00
2022-11-05T06:58:22.558Z,97436.40
2022-11-05T07:00:49.503Z,97434.20
2022-11-05T07:03:16.447Z,97431.60
2022-11-05T07:05:49.491Z,97432.60
2022-11-05T07:08:17.239Z,97434.80
2022-11-05T07:10:44.080Z,97440.20
2022-11-05T07:13:11.452Z,97447.80
2022-11-05T07:15:38.565Z,97451.20
2022-11-05T07:18:07.654Z,97460.80
2022-11-05T07:20:35.705Z,97464.20
2022-11-05T07:23:02.738Z,97475.40
2022-11-05T07:25:32.363Z,97481.20
2022-11-05T07:28:00.039Z,97487.60
2022-11-05T07:30:27.761Z,97497.60
2022-11-05T07:32:55.113Z,97503.60
2022-11-05T07:35:22.194Z,97508.80
2022-11-05T07:37:54.079Z,97511.20
2022-11-05T07:40:24.559Z,97516.60
2022-11-05T07:42:58.030Z,97523.20
2022-11-05T07:45:26.558Z,97525.20
2022-11-05T07:48:11.545Z,97530.40
2022-11-05T07:50:38.473Z,97535.20
2022-11-05T07:53:14.835Z,97532.20
2022-11-05T07:55:42.807Z,97534.40
2022-11-05T07:58:11.387Z,97532.20
2022-11-05T08:00:38.976Z,97534.20
2022-11-05T08:03:15.358Z,97530.40
2022-11-05T08:05:47.177Z,97535.80
2022-11-05T08:08:18.375Z,97531.80
2022-11-05T08:10:46.537Z,97536.80
2022-11-05T08:13:15.161Z,97543.40
2022-11-05T08:15:43.381Z,97540.60
2022-11-05T08:18:17.697Z,97550.00
2022-11-05T08:20:46.831Z,97551.60
2022-11-05T08:23:14.552Z,97551.60
2022-11-05T08:25:42.037Z,97545.60
2022-11-05T08:28:13.038Z,97548.20
2022-11-05T08:30:40.171Z,97552.00
2022-11-05T08:33:11.208Z,97550.60
2022-11-05T08:35:40.179Z,97548.00
2022-11-05T08:38:10.803Z,97549.40
2022-11-05T08:40:38.195Z,97555.00
2022-11-05T08:43:08.022Z,97562.00
2022-11-05T08:45:38.211Z,97564.20
2022-11-05T08:48:08.714Z,97564.80
2022-11-05T08:50:37.366Z,97566.20
2022-11-05T08:53:06.020Z,97564.40
2022-11-05T08:55:33.580Z,97569.60
2022-11-05T08:58:04.106Z,97572.40
2022-11-05T09:00:36.776Z,97572.00
2022-11-05T09:03:07.309Z,97576.20
2022-11-05T09:05:38.051Z,97581.80
2022-11-05T09:08:12.291Z,97582.40
2022-11-05T09:10:40.849Z,97589.00
2022-11-05T09:13:13.077Z,97590.40
2022-11-05T09:15:43.998Z,97591.20
2022-11-05T09:18:14.157Z,97595.00
2022-11-05T09:20:41.603Z,97596.00
2022-11-05T09:23:11.934Z,97594.40
2022-11-05T09:25:39.101Z,97596.60
2022-11-05T09:28:13.390Z,97594.80
2022-11-05T09:30:46.828Z,97596.00
2022-11-05T09:33:15.149Z,97597.40
2022-11-05T09:35:42.870Z,97596.40
2022-11-05T09:38:10.927Z,97599.60
2022-11-05T09:40:47.900Z,97598.00
2022-11-05T09:43:23.266Z,97606.80
2022-11-05T09:45:59.758Z,97603.00
2022-11-05T09:48:32.802Z,97595.00
2022-11-05T09:51:00.059Z,97593.00
2022-11-05T09:53:27.920Z,97591.80
2022-11-05T09:55:59.791Z,97587.00
2022-11-05T09:59:04.914Z,97593.40
2022-11-05T10:01:38.420Z,97594.40
2022-11-05T10:04:19.905Z,97598.20
2022-11-05T10:06:57.896Z,97604.40
2022-11-05T10:09:48.041Z,97604.00
2022-11-05T10:12:24.463Z,97598.80
2022-11-05T10:15:26.047Z,97602.40
2022-11-05T10:18:27.166Z,97598.20
2022-11-05T10:20:54.623Z,97591.80
2022-11-05T10:23:23.450Z,97594.00
2022-11-05T10:26:05.637Z,97591.20
2022-11-05T10:28:34.925Z,97593.60
2022-11-05T10:31:07.298Z,97593.40
2022-11-05T10:33:56.269Z,97592.20
2022-11-05T10:36:23.702Z,97594.20
2022-11-05T10:38:51.769Z,97594.40
2022-11-05T10:41:58.672Z,97591.20
2022-11-05T10:44:49.964Z,97588.00
2022-11-05T10:47:43.641Z,97585.40
2022-11-05T10:50:19.972Z,97587.40
2022-11-05T10:52:58.034Z,97590.80
2022-11-05T10:55:29.403Z,97592.00
2022-11-05T10:58:29.143Z,97587.80
2022-11-05T11:00:55.888Z,97589.40
2022-11-05T11:03:51.273Z,97588.40
2022-11-05T11:06:29.841Z,97585.40
2022-11-05T11:09:01.422Z,97591.60
2022-11-05T11:11:59.572Z,97590.40
2022-11-05T11:14:27.714Z,97599.80
2022-11-05T11:16:57.694Z,97598.40
2022-11-05T11:19:33.819Z,97598.40
2022-11-05T11:22:03.571Z,97602.40
2022-11-05T11:24:38.356Z,97600.00
2022-11-05T11:27:13.235Z,97607.20
2022-11-05T11:29:49.142Z,97611.40
2022-11-05T11:32:21.307Z,97612.00
2022-11-05T11:34:54.539Z,97610.40
2022-11-05T11:37:41.848Z,97616.80
2022-11-05T11:40:24.198Z,97623.00
2022-11-05T11:43:00.494Z,97630.40
2022-11-05T11:45:45.441Z,97626.60
2022-11-05T11:48:28.988Z,97629.60
2022-11-05T11:50:58.550Z,97631.00
2022-11-05T11:53:33.437Z,97628.80
2022-11-05T11:56:12.172Z,97626.40
2022-11-05T11:58:45.019Z,97617.00
2022-11-05T12:01:42.676Z,97616.40
2022-11-05T12:04:34.125Z,97617.60
2022-11-05T12:07:18.575Z,97616.20
2022-11-05T12:10:22.609Z,97616.80
2022-11-05T12:13:20.981Z,97615.80
2022-11-05T12:16:11.159Z,97620.60
2022-11-05T12:18:59.623Z,97620.00
2022-11-05T12:22:19.406Z,97619.60
2022-11-05T12:25:14.557Z,97624.00
2022-11-05T12:28:01.832Z,97615.40
2022-11-05T12:30:39.518Z,97618.00
2022-11-05T12:33:27.677Z,97614.40
2022-11-05T12:36:03.376Z,97612.40
2022-11-05T12:39:28.829Z,97615.80
2022-11-05T12:42:23.097Z,97617.40
2022-11-05T12:44:59.679Z,97618.20
2022-11-05T12:48:02.672Z,97619.40
2022-11-05T12:51:14.350Z,97617.00
2022-11-05T12:54:32.247Z,97617.80
2022-11-05T12:57:03.814Z,97622.00
2022-11-05T12:59:52.031Z,97622.80
2022-11-05T13:02:34.153Z,97627.80
2022-11-05T13:05:36.574Z,97624.60
2022-11-05T13:08:14.986Z,97626.60
2022-11-05T13:11:00.467Z,97630.60
2022-11-05T13:13:42.356Z,97633.40
2022-11-05T13:16:25.118Z,97639.20
2022-11-05T13:19:05.023Z,97636.80
2022-11-05T13:21:34.528Z,97632.60
2022-11-05T13:24:39.361Z,97636.20
2022-11-05T13:27:41.572Z,97636.40
2022-11-05T13:30:38.310Z,97643.20
2022-11-05T13:33:36.547Z,97650.20
2022-11-05T13:36:30.974Z,97654.20
2022-11-05T13:39:22.875Z,97652.60
2022-11-05T13:42:40.300Z,97662.40
2022-11-05T13:45:32.059Z,97667.40
2022-11-05T13:48:32.675Z,97668.00
2022-11-05T13:51:19.251Z,97670.80
2022-11-05T13:54:01.101Z,97670.20
2022-11-05T13:56:40.687Z,97670.60
2022-11-05T13:59:35.716Z,97676.40
2022-11-05T14:02:33.461Z,97683.60
2022-11-05T14:05:02.571Z,97685.40
2022-11-05T14:07:34.418Z,97690.40
2022-11-05T14:10:14.411Z,97691.60
2022-11-05T14:12:48.902Z,97695.80
2022-11-05T14:15:15.742Z,97700.20
2022-11-05T14:18:24.054Z,97698.60
2022-11-05T14:21:00.697Z,97706.00
2022-11-05T14:23:50.915Z,97706.80
2022-11-05T14:26:31.552Z,97710.80
2022-11-05T14:29:04.112Z,97714.40
2022-11-05T14:32:07.385Z,97725.20
2022-11-05T14:34:44.481Z,97727.20
2022-11-05T14:37:11.197Z,97728.80
2022-11-05T14:39:40.025Z,97728.00
2022-11-05T14:42:29.777Z,97730.60
2022-11-05T14:45:28.943Z,97730.80
2022-11-05T14:48:00.777Z,97737.00
2022-11-05T14:50:42.518Z,97735.20
2022-11-05T14:53:38.727Z,97735.60
2022-11-05T14:56:14.666Z,97738.00
2022-11-05T14:58:44.269Z,97734.80
2022-11-05T15:01:13.947Z,97725.00
2022-11-05T15:03:45.881Z,97732.40
2022-11-05T15:06:35.782Z,97728.80
2022-11-05T15:09:42.722Z,97728.00
2022-11-05T15:12:49.270Z,97731.40
2022-11-05T15:15:21.293Z,97736.20
2022-11-05T15:17:58.445Z,97736.60
2022-11-05T15:20:40.127Z,97738.20
2022-11-05T15:23:14.815Z,97737.80
2022-11-05T15:25:53.409Z,97738.60
2022-11-05T15:28:26.190Z,97740.80
2022-11-05T15:31:04.236Z,97748.40
2022-11-05T15:33:32.724Z,97745.00
2022-11-05T15:36:28.024Z,97739.00
2022-11-05T15:39:27.430Z,97741.40
2022-11-05T15:41:43.414Z,97742.00
2022-11-05T15:44:28.494Z,97744.20
2022-11-05T15:47:18.724Z,97749.40
2022-11-05T15:50:02.155Z,97750.40
2022-11-05T15:52:36.632Z,97756.40
2022-11-05T15:55:12.961Z,97761.40
2022-11-05T15:58:06.907Z,97760.00
2022-11-05T16:00:36.816Z,97760.00
2022-11-05T16:03:28.991Z,97758.60
2022-11-05T16:05:56.416Z,97763.40
2022-11-05T16:08:30.191Z,97763.80
2022-11-05T16:11:01.118Z,97766.00
2022-11-05T16:13:42.047Z,97766.40
2022-11-05T16:16:15.010Z,97772.40
2022-11-05T16:18:43.797Z,97772.20
2022-11-05T16:21:12.256Z,97774.80
2022-11-05T16:23:54.274Z,97780.40
2022-11-05T16:29:37.131Z,97786.00
2022-11-05T16:32:17.787Z,97789.20
2022-11-05T16:34:52.911Z,97796.40
2022-11-05T16:37:23.932Z,97795.00
2022-11-05T16:39:51.757Z,97799.20
2022-11-05T16:42:27.098Z,97801.60
2022-11-05T16:44:55.439Z,97807.00
2022-11-05T16:47:23.343Z,97805.40
2022-11-05T16:49:51.086Z,97803.60
2022-11-05T16:52:18.321Z,97806.60
2022-11-05T16:54:45.162Z,97807.40
2022-11-05T16:57:27.189Z,97811.60
2022-11-05T16:59:55.706Z,97819.60
2022-11-05T17:02:23.164Z,97820.00
2022-11-05T17:04:50.159Z,97821.20
2022-11-05T17:07:17.281Z,97823.40
2022-11-05T17:09:44.690Z,97826.40
2022-11-05T17:12:13.783Z,97836.40
2022-11-05T17:14:41.765Z,97840.20
2022-11-05T17:17:08.923Z,97838.00
2022-11-05T17:19:36.215Z,97840.00
2022-11-05T17:22:03.041Z,97839.60
2022-11-05T17:24:30.412Z,97843.60
2022-11-05T17:26:57.255Z,97843.60
2022-11-05T17:29:24.410Z,97844.80
2022-11-05T17:31:51.738Z,97845.40
2022-11-05T17:34:19.113Z,97842.00
2022-11-05T17:36:46.128Z,97843.20
2022-11-05T17:39:13.902Z,97850.20
2022-11-05T17:41:41.057Z,97855.20
2022-11-05T17:44:12.350Z,97854.60
2022-11-05T17:46:39.312Z,97856.40
2022-11-05T17:49:06.439Z,97862.20
2022-11-05T17:51:35.125Z,97868.80
2022-11-05T17:54:02.033Z,97866.00
2022-11-05T17:56:34.469Z,97869.00
2022-11-05T17:59:03.787Z,97868.80
2022-11-05T18:01:35.730Z,97861.60
2022-11-05T18:04:08.702Z,97870.60
2022-11-05T18:06:41.052Z,97875.60
2022-11-05T18:09:10.108Z,97879.60
2022-11-05T18:11:38.199Z,97876.20
2022-11-05T18:14:05.868Z,97881.20
2022-11-05T18:16:34.695Z,97878.40
2022-11-05T18:19:01.627Z,97882.20
2022-11-05T18:21:28.540Z,97881.60
2022-11-05T18:23:55.586Z,97886.00
2022-11-05T18:26:22.665Z,97885.40
2022-11-05T18:28:49.631Z,97895.60
2022-11-05T18:31:22.773Z,97892.00
2022-11-05T18:33:55.063Z,97894.20
2022-11-05T18:36:25.987Z,97897.20
2022-11-05T18:38:54.176Z,97896.40
2022-11-05T18:41:22.018Z,97900.20
2022-11-05T18:43:49.373Z,97900.20
2022-11-05T18:46:43.043Z,97901.80
2022-11-05T18:49:05.909Z,97907.00
2022-11-05T18:51:33.348Z,97910.00
2022-11-05T18:54:00.742Z,97911.20
2022-11-05T18:56:27.503Z,97914.00
2022-11-05T18:59:14.850Z,97910.20
2022-11-05T19:01:43.153Z,97913.20
2022-11-05T19:04:10.403Z,97918.80
2022-11-05T19:06:38.587Z,97920.40
2022-11-05T19:09:08.929Z,97923.80
2022-11-05T19:11:36.630Z,97925.40
2022-11-05T19:14:03.460Z,97931.40
2022-11-05T19:16:31.908Z,97937.00
2022-11-05T19:19:04.665Z,97934.60
2022-11-05T19:21:32.863Z,97938.40
2022-11-05T19:24:02.645Z,97941.00
2022-11-05T19:26:31.015Z,97939.80
2022-11-05T19:29:03.210Z,97942.40
2022-11-05T19:31:31.936Z,97946.00
2022-11-05T19:33:59.539Z,97938.60
2022-11-05T19:36:26.373Z,97946.00
2022-11-05T19:39:00.108Z,97944.60
2022-11-05T19:41:28.254Z,97943.00
2022-11-05T19:43:55.609Z,97949.60
2022-11-05T19:46:24.210Z,97950.00
2022-11-05T19:48:51.805Z,97951.80
2022-11-05T19:51:30.930Z,97949.60
2022-11-05T19:54:01.001Z,97950.40
2022-11-05T19:56:36.132Z,97951.00
2022-11-05T19:59:05.830Z,97951.60
2022-11-05T20:01:36.046Z,97947.40
2022-11-05T20:04:04.860Z,97954.40
2022-11-05T20:06:38.815Z,97949.20
2022-11-05T20:09:27.396Z,97949.00
2022-11-05T20:11:56.525Z,97952.80
2022-11-05T20:14:26.193Z,97944.00
2022-11-05T20:16:53.954Z,97955.40
2022-11-05T20:19:23.223Z,97962.00
2022-11-05T20:21:50.264Z,97965.20
2022-11-05T20:24:24.878Z,97958.60
2022-11-05T20:26:56.674Z,97959.60
2022-11-05T20:29:30.524Z,97961.20
2022-11-05T20:32:02.292Z,97964.60
2022-11-05T20:34:31.273Z,97966.60
2022-11-05T20:36:58.259Z,97963.00
2022-11-05T20:39:25.113Z,97968.20
2022-11-05T20:41:52.931Z,97967.00
2022-11-05T20:44:20.275Z,97963.40
2022-11-05T20:46:47.090Z,97969.20
2022-11-05T20:49:14.064Z,97972.40
2022-11-05T20:51:41.628Z,97973.80
2022-11-05T20:54:09.719Z,97981.60
2022-11-05T20:56:36.582Z,97984.00
2022-11-05T20:59:05.548Z,97982.80
2022-11-05T21:01:34.647Z,97981.00
2022-11-05T21:04:03.310Z,97985.00
2022-11-05T21:06:30.603Z,97985.40
2022-11-05T21:08:57.515Z,97988.40
2022-11-05T21:11:24.663Z,97991.20
2022-11-05T21:13:51.601Z,97985.40
2022-11-05T21:16:20.091Z,97987.20
2022-11-05T21:18:47.989Z,97987.60
2022-11-05T21:21:18.676Z,97990.40
2022-11-05T21:23:45.792Z,97990.00
2022-11-05T21:26:15.426Z,97986.40
2022-11-05T21:28:43.130Z,97987.40
2022-11-05T21:31:11.069Z,97996.20
2022-11-05T21:33:38.316Z,97997.80
2022-11-05T21:36:11.937Z,97993.00
2022-11-05T21:38:40.204Z,97993.20
2022-11-05T21:41:08.588Z,97992.00
2022-11-05T21:43:37.787Z,97994.20
2022-11-05T21:46:05.067Z,97993.40
2022-11-05T21:48:32.514Z,97987.00
2022-11-05T21:51:18.436Z,97981.60
2022-11-05T21:54:05.181Z,97982.80
2022-11-05T21:56:51.277Z,97982.60
2022-11-05T21:59:40.834Z,97979.20
2022-11-05T22:02:11.327Z,97980.00
2022-11-05T22:04:42.130Z,97981.00
2022-11-05T22:07:11.732Z,97981.80
2022-11-05T22:09:39.207Z,97979.20
2022-11-05T22:12:06.605Z,97979.40
2022-11-05T22:14:34.086Z,97982.40
2022-11-05T22:17:01.748Z,97985.60
2022-11-05T22:19:29.313Z,97981.60
2022-11-05T22:21:56.143Z,97982.80
2022-11-05T22:24:24.254Z,97987.60
2022-11-05T22:26:51.387Z,97988.40
2022-11-05T22:29:18.217Z,97986.80
2022-11-05T22:31:45.360Z,97984.80
2022-11-05T22:34:12.714Z,97984.40
2022-11-05T22:36:39.848Z,97983.80
2022-11-05T22:39:07.627Z,97984.60
2022-11-05T22:41:34.763Z,97986.40
2022-11-05T22:44:03.374Z,97986.00
2022-11-05T22:46:31.463Z,97987.80
2022-11-05T22:48:59.135Z,97985.00
2022-11-05T22:51:29.042Z,97983.20
2022-11-05T22:53:56.653Z,97984.40
2022-11-05T22:56:26.789Z,97986.00
2022-11-05T22:58:54.832Z,97979.40
2022-11-05T23:01:23.437Z,97976.60
2022-11-05T23:03:54.327Z,97982.40
2022-11-05T23:06:46.495Z,97981.00
2022-11-05T23:09:40.288Z,97984.60
2022-11-05T23:12:27.219Z,97987.00
2022-11-05T23:14:56.585Z,97991.40
2022-11-05T23:17:42.912Z,97994.00
2022-11-05T23:20:39.265Z,97991.20
2022-11-05T23:23:32.188Z,97991.40
2022-11-05T23:26:20.534Z,97993.60
2022-11-05T23:28:47.582Z,97992.40
2022-11-05T23:31:33.162Z,97985.20
2022-11-05T23:33:59.953Z,97986.80
2022-11-05T23:36:45.492Z,97988.00
2022-11-05T23:39:12.429Z,97986.20
2022-11-05T23:41:58.222Z,97986.60
2022-11-05T23:44:43.694Z,97983.20
2022-11-05T23:47:29.379Z,97984.80
2022-11-05T23:49:56.213Z,97982.40
2022-11-05T23:52:23.009Z,97982.20
2022-11-05T23:54:50.151Z,97983.40
2022-11-05T23:57:17.009Z,97985.60
2022-11-05T23:59:43.824Z,97985.60
